sensor_id;sensor_type;location;lat;lon;timestamp;P1;durP1;ratioP1;P2;durP2;ratioP2
68800;SDS011;55784;50.734;7.086;2022-09-16T00:02:18;7.15;;;1.00;;
68800;SDS011;55784;50.734;7.086;2022-09-16T00:05:52;5.53;;;0.95;;
68800;SDS011;55784;50.734;7.086;2022-09-16T00:20:48;7.93;;;1.10;;
68800;SDS011;55784;50.734;7.086;2022-09-16T00:23:58;5.83;;;1.00;;
68800;SDS011;55784;50.734;7.086;2022-09-16T00:46:10;4.18;;;0.90;;
68800;SDS011;55784;50.734;7.086;2022-09-16T02:01:58;6.37;;;1.10;;
68800;SDS011;55784;50.734;7.086;2022-09-16T02:44:18;7.00;;;1.20;;
68800;SDS011;55784;50.734;7.086;2022-09-16T02:52:38;7.27;;;1.30;;
68800;SDS011;55784;50.734;7.086;2022-09-16T02:56:13;6.78;;;1.20;;
68800;SDS011;55784;50.734;7.086;2022-09-16T02:58:13;6.22;;;1.30;;
68800;SDS011;55784;50.734;7.086;2022-09-16T03:00:43;6.17;;;1.30;;
68800;SDS011;55784;50.734;7.086;2022-09-16T03:03:12;6.80;;;1.55;;
68800;SDS011;55784;50.734;7.086;2022-09-16T03:06:05;6.18;;;1.10;;
68800;SDS011;55784;50.734;7.086;2022-09-16T03:08:31;8.15;;;1.45;;
68800;SDS011;55784;50.734;7.086;2022-09-16T03:10:58;9.43;;;1.40;;
68800;SDS011;55784;50.734;7.086;2022-09-16T03:13:51;7.33;;;1.43;;
68800;SDS011;55784;50.734;7.086;2022-09-16T03:19:17;5.28;;;1.30;;
68800;SDS011;55784;50.734;7.086;2022-09-16T03:24:37;6.95;;;1.77;;
68800;SDS011;55784;50.734;7.086;2022-09-16T03:27:14;7.10;;;1.50;;
68800;SDS011;55784;50.734;7.086;2022-09-16T03:29:47;8.55;;;1.42;;
68800;SDS011;55784;50.734;7.086;2022-09-16T03:32:29;6.55;;;1.50;;
68800;SDS011;55784;50.734;7.086;2022-09-16T03:37:35;10.88;;;2.15;;
68800;SDS011;55784;50.734;7.086;2022-09-16T03:40:04;5.32;;;1.30;;
68800;SDS011;55784;50.734;7.086;2022-09-16T03:42:33;7.40;;;1.52;;
68800;SDS011;55784;50.734;7.086;2022-09-16T03:44:59;6.95;;;1.58;;
68800;SDS011;55784;50.734;7.086;2022-09-16T03:47:24;7.13;;;1.50;;
68800;SDS011;55784;50.734;7.086;2022-09-16T03:49:50;5.40;;;1.30;;
68800;SDS011;55784;50.734;7.086;2022-09-16T03:52:15;5.57;;;1.50;;
68800;SDS011;55784;50.734;7.086;2022-09-16T03:54:43;7.10;;;1.58;;
68800;SDS011;55784;50.734;7.086;2022-09-16T03:57:08;7.15;;;1.55;;
68800;SDS011;55784;50.734;7.086;2022-09-16T03:59:34;6.73;;;1.50;;
68800;SDS011;55784;50.734;7.086;2022-09-16T04:01:59;6.30;;;1.40;;
68800;SDS011;55784;50.734;7.086;2022-09-16T04:04:25;7.00;;;1.55;;
68800;SDS011;55784;50.734;7.086;2022-09-16T04:06:50;5.57;;;1.53;;
68800;SDS011;55784;50.734;7.086;2022-09-16T04:09:16;7.33;;;1.53;;
68800;SDS011;55784;50.734;7.086;2022-09-16T04:11:41;8.77;;;1.50;;
68800;SDS011;55784;50.734;7.086;2022-09-16T04:14:06;9.30;;;1.77;;
68800;SDS011;55784;50.734;7.086;2022-09-16T04:16:32;7.20;;;1.40;;
68800;SDS011;55784;50.734;7.086;2022-09-16T04:18:58;4.70;;;1.30;;
68800;SDS011;55784;50.734;7.086;2022-09-16T04:21:24;5.80;;;1.30;;
68800;SDS011;55784;50.734;7.086;2022-09-16T04:23:50;6.63;;;1.40;;
68800;SDS011;55784;50.734;7.086;2022-09-16T04:26:15;8.67;;;1.40;;
68800;SDS011;55784;50.734;7.086;2022-09-16T04:28:41;5.95;;;1.40;;
68800;SDS011;55784;50.734;7.086;2022-09-16T04:31:09;8.70;;;2.30;;
68800;SDS011;55784;50.734;7.086;2022-09-16T04:33:36;6.40;;;1.25;;
68800;SDS011;55784;50.734;7.086;2022-09-16T04:38:36;7.47;;;1.40;;
68800;SDS011;55784;50.734;7.086;2022-09-16T04:41:06;6.72;;;1.33;;
68800;SDS011;55784;50.734;7.086;2022-09-16T04:43:36;6.82;;;1.35;;
68800;SDS011;55784;50.734;7.086;2022-09-16T04:46:02;6.47;;;1.13;;
68800;SDS011;55784;50.734;7.086;2022-09-16T04:48:27;7.20;;;1.40;;
68800;SDS011;55784;50.734;7.086;2022-09-16T04:50:59;7.70;;;1.58;;
68800;SDS011;55784;50.734;7.086;2022-09-16T04:53:26;7.68;;;1.27;;
68800;SDS011;55784;50.734;7.086;2022-09-16T04:55:52;6.40;;;1.30;;
68800;SDS011;55784;50.734;7.086;2022-09-16T04:58:17;6.87;;;1.23;;
68800;SDS011;55784;50.734;7.086;2022-09-16T05:00:42;7.37;;;1.40;;
68800;SDS011;55784;50.734;7.086;2022-09-16T05:03:07;7.53;;;1.40;;
68800;SDS011;55784;50.734;7.086;2022-09-16T05:05:33;5.47;;;1.30;;
68800;SDS011;55784;50.734;7.086;2022-09-16T05:07:58;8.87;;;1.57;;
68800;SDS011;55784;50.734;7.086;2022-09-16T05:10:24;5.20;;;1.30;;
68800;SDS011;55784;50.734;7.086;2022-09-16T05:12:50;8.00;;;1.40;;
68800;SDS011;55784;50.734;7.086;2022-09-16T05:15:17;7.38;;;1.40;;
68800;SDS011;55784;50.734;7.086;2022-09-16T05:17:42;7.83;;;1.50;;
68800;SDS011;55784;50.734;7.086;2022-09-16T05:20:08;6.63;;;1.30;;
68800;SDS011;55784;50.734;7.086;2022-09-16T05:22:33;8.80;;;1.67;;
68800;SDS011;55784;50.734;7.086;2022-09-16T05:24:58;7.38;;;1.63;;
68800;SDS011;55784;50.734;7.086;2022-09-16T05:27:24;7.60;;;1.50;;
68800;SDS011;55784;50.734;7.086;2022-09-16T05:29:51;7.03;;;1.25;;
68800;SDS011;55784;50.734;7.086;2022-09-16T05:32:17;9.75;;;1.90;;
68800;SDS011;55784;50.734;7.086;2022-09-16T05:34:42;8.60;;;1.97;;
68800;SDS011;55784;50.734;7.086;2022-09-16T05:37:08;6.30;;;1.30;;
68800;SDS011;55784;50.734;7.086;2022-09-16T05:39:33;7.00;;;1.50;;
68800;SDS011;55784;50.734;7.086;2022-09-16T05:41:58;13.97;;;3.00;;
68800;SDS011;55784;50.734;7.086;2022-09-16T05:44:24;6.72;;;1.20;;
68800;SDS011;55784;50.734;7.086;2022-09-16T05:46:51;11.47;;;1.30;;
68800;SDS011;55784;50.734;7.086;2022-09-16T05:49:16;13.75;;;2.03;;
68800;SDS011;55784;50.734;7.086;2022-09-16T05:51:45;7.73;;;1.20;;
68800;SDS011;55784;50.734;7.086;2022-09-16T05:54:11;8.80;;;1.15;;
68800;SDS011;55784;50.734;7.086;2022-09-16T05:56:37;11.05;;;1.50;;
68800;SDS011;55784;50.734;7.086;2022-09-16T05:59:03;7.87;;;1.13;;
68800;SDS011;55784;50.734;7.086;2022-09-16T06:01:30;6.72;;;1.10;;
68800;SDS011;55784;50.734;7.086;2022-09-16T06:04:00;5.82;;;1.10;;
68800;SDS011;55784;50.734;7.086;2022-09-16T06:06:28;4.03;;;0.90;;
68800;SDS011;55784;50.734;7.086;2022-09-16T06:08:59;8.43;;;1.00;;
68800;SDS011;55784;50.734;7.086;2022-09-16T06:11:40;5.45;;;0.82;;
68800;SDS011;55784;50.734;7.086;2022-09-16T06:14:07;5.57;;;0.77;;
68800;SDS011;55784;50.734;7.086;2022-09-16T06:16:33;6.80;;;0.90;;
68800;SDS011;55784;50.734;7.086;2022-09-16T06:19:00;4.75;;;0.90;;
68800;SDS011;55784;50.734;7.086;2022-09-16T06:21:30;7.13;;;0.70;;
68800;SDS011;55784;50.734;7.086;2022-09-16T06:23:56;6.50;;;0.95;;
68800;SDS011;55784;50.734;7.086;2022-09-16T06:26:22;5.97;;;1.00;;
68800;SDS011;55784;50.734;7.086;2022-09-16T06:28:49;6.85;;;1.10;;
68800;SDS011;55784;50.734;7.086;2022-09-16T06:31:20;7.93;;;0.90;;
68800;SDS011;55784;50.734;7.086;2022-09-16T06:33:47;5.32;;;1.00;;
68800;SDS011;55784;50.734;7.086;2022-09-16T06:36:18;4.28;;;0.90;;
68800;SDS011;55784;50.734;7.086;2022-09-16T06:38:48;7.75;;;1.13;;
68800;SDS011;55784;50.734;7.086;2022-09-16T06:41:15;5.78;;;0.93;;
68800;SDS011;55784;50.734;7.086;2022-09-16T06:43:42;3.93;;;0.80;;
68800;SDS011;55784;50.734;7.086;2022-09-16T06:46:09;7.25;;;0.98;;
68800;SDS011;55784;50.734;7.086;2022-09-16T06:48:43;6.00;;;1.02;;
68800;SDS011;55784;50.734;7.086;2022-09-16T06:51:15;6.45;;;0.95;;
68800;SDS011;55784;50.734;7.086;2022-09-16T06:53:42;4.03;;;0.80;;
68800;SDS011;55784;50.734;7.086;2022-09-16T06:56:09;5.77;;;0.90;;
68800;SDS011;55784;50.734;7.086;2022-09-16T06:58:37;6.60;;;1.15;;
68800;SDS011;55784;50.734;7.086;2022-09-16T07:01:05;6.68;;;1.10;;
68800;SDS011;55784;50.734;7.086;2022-09-16T07:03:32;6.22;;;1.00;;
68800;SDS011;55784;50.734;7.086;2022-09-16T07:05:58;6.63;;;0.90;;
68800;SDS011;55784;50.734;7.086;2022-09-16T07:08:28;7.63;;;1.07;;
68800;SDS011;55784;50.734;7.086;2022-09-16T07:11:01;6.95;;;1.00;;
68800;SDS011;55784;50.734;7.086;2022-09-16T07:13:37;6.75;;;1.10;;
68800;SDS011;55784;50.734;7.086;2022-09-16T07:16:04;4.43;;;1.00;;
68800;SDS011;55784;50.734;7.086;2022-09-16T07:18:32;6.23;;;1.10;;
68800;SDS011;55784;50.734;7.086;2022-09-16T07:23:31;7.93;;;1.10;;
68800;SDS011;55784;50.734;7.086;2022-09-16T07:26:04;8.05;;;1.10;;
68800;SDS011;55784;50.734;7.086;2022-09-16T07:28:33;6.40;;;1.10;;
68800;SDS011;55784;50.734;7.086;2022-09-16T07:31:00;6.30;;;1.10;;
68800;SDS011;55784;50.734;7.086;2022-09-16T07:33:29;7.78;;;1.08;;
68800;SDS011;55784;50.734;7.086;2022-09-16T07:36:00;7.05;;;1.00;;
68800;SDS011;55784;50.734;7.086;2022-09-16T07:38:27;8.27;;;1.27;;
68800;SDS011;55784;50.734;7.086;2022-09-16T07:40:54;6.32;;;1.27;;
68800;SDS011;55784;50.734;7.086;2022-09-16T07:43:19;6.10;;;1.00;;
68800;SDS011;55784;50.734;7.086;2022-09-16T07:45:45;8.95;;;1.42;;
68800;SDS011;55784;50.734;7.086;2022-09-16T07:48:10;5.30;;;1.20;;
68800;SDS011;55784;50.734;7.086;2022-09-16T07:50:36;5.07;;;1.20;;
68800;SDS011;55784;50.734;7.086;2022-09-16T07:53:01;4.70;;;1.10;;
68800;SDS011;55784;50.734;7.086;2022-09-16T07:55:27;8.35;;;1.10;;
68800;SDS011;55784;50.734;7.086;2022-09-16T07:57:52;5.47;;;0.90;;
68800;SDS011;55784;50.734;7.086;2022-09-16T08:00:18;6.80;;;1.07;;
68800;SDS011;55784;50.734;7.086;2022-09-16T08:02:43;6.73;;;1.00;;
68800;SDS011;55784;50.734;7.086;2022-09-16T08:05:08;6.57;;;0.90;;
68800;SDS011;55784;50.734;7.086;2022-09-16T08:07:34;5.80;;;0.90;;
68800;SDS011;55784;50.734;7.086;2022-09-16T08:10:00;8.65;;;1.20;;
68800;SDS011;55784;50.734;7.086;2022-09-16T08:12:26;7.10;;;0.90;;
68800;SDS011;55784;50.734;7.086;2022-09-16T08:14:56;4.23;;;0.80;;
68800;SDS011;55784;50.734;7.086;2022-09-16T08:17:22;5.95;;;1.00;;
68800;SDS011;55784;50.734;7.086;2022-09-16T08:19:48;5.37;;;0.90;;
68800;SDS011;55784;50.734;7.086;2022-09-16T08:22:13;6.30;;;1.00;;
68800;SDS011;55784;50.734;7.086;2022-09-16T08:24:39;5.53;;;1.00;;
68800;SDS011;55784;50.734;7.086;2022-09-16T08:27:04;6.40;;;0.80;;
68800;SDS011;55784;50.734;7.086;2022-09-16T08:29:29;8.73;;;0.93;;
68800;SDS011;55784;50.734;7.086;2022-09-16T08:31:54;5.70;;;0.70;;
68800;SDS011;55784;50.734;7.086;2022-09-16T08:34:20;5.00;;;0.70;;
68800;SDS011;55784;50.734;7.086;2022-09-16T08:36:45;5.57;;;1.20;;
68800;SDS011;55784;50.734;7.086;2022-09-16T08:39:11;5.35;;;0.80;;
68800;SDS011;55784;50.734;7.086;2022-09-16T08:49:55;5.70;;;0.90;;
68800;SDS011;55784;50.734;7.086;2022-09-16T08:54:58;7.27;;;0.90;;
68800;SDS011;55784;50.734;7.086;2022-09-16T08:57:33;4.13;;;0.88;;
68800;SDS011;55784;50.734;7.086;2022-09-16T09:00:05;6.35;;;0.82;;
68800;SDS011;55784;50.734;7.086;2022-09-16T09:02:38;7.07;;;1.15;;
68800;SDS011;55784;50.734;7.086;2022-09-16T09:08:25;5.03;;;0.80;;
68800;SDS011;55784;50.734;7.086;2022-09-16T09:13:54;4.97;;;0.60;;
68800;SDS011;55784;50.734;7.086;2022-09-16T09:16:35;4.00;;;0.60;;
68800;SDS011;55784;50.734;7.086;2022-09-16T09:19:37;5.13;;;0.57;;
68800;SDS011;55784;50.734;7.086;2022-09-16T09:27:54;3.45;;;0.50;;
68800;SDS011;55784;50.734;7.086;2022-09-16T09:30:35;4.60;;;0.60;;
68800;SDS011;55784;50.734;7.086;2022-09-16T09:33:13;2.78;;;0.45;;
68800;SDS011;55784;50.734;7.086;2022-09-16T09:35:57;3.93;;;0.50;;
68800;SDS011;55784;50.734;7.086;2022-09-16T09:40:57;5.10;;;0.60;;
68800;SDS011;55784;50.734;7.086;2022-09-16T09:46:23;3.05;;;0.45;;
68800;SDS011;55784;50.734;7.086;2022-09-16T09:48:57;3.45;;;0.50;;
68800;SDS011;55784;50.734;7.086;2022-09-16T09:51:32;4.87;;;0.60;;
68800;SDS011;55784;50.734;7.086;2022-09-16T09:54:08;5.47;;;0.50;;
68800;SDS011;55784;50.734;7.086;2022-09-16T09:56:56;2.97;;;0.40;;
68800;SDS011;55784;50.734;7.086;2022-09-16T09:59:35;4.57;;;0.60;;
68800;SDS011;55784;50.734;7.086;2022-09-16T10:02:12;4.20;;;0.50;;
68800;SDS011;55784;50.734;7.086;2022-09-16T10:04:41;7.80;;;0.53;;
68800;SDS011;55784;50.734;7.086;2022-09-16T10:07:07;3.55;;;0.47;;
68800;SDS011;55784;50.734;7.086;2022-09-16T10:09:34;4.40;;;0.60;;
68800;SDS011;55784;50.734;7.086;2022-09-16T10:12:01;3.47;;;0.50;;
68800;SDS011;55784;50.734;7.086;2022-09-16T10:14:31;4.35;;;0.80;;
68800;SDS011;55784;50.734;7.086;2022-09-16T10:17:02;4.80;;;0.60;;
68800;SDS011;55784;50.734;7.086;2022-09-16T10:19:34;5.63;;;0.80;;
68800;SDS011;55784;50.734;7.086;2022-09-16T10:22:31;3.90;;;0.50;;
68800;SDS011;55784;50.734;7.086;2022-09-16T10:24:59;2.58;;;0.40;;
68800;SDS011;55784;50.734;7.086;2022-09-16T10:32:49;5.05;;;0.55;;
68800;SDS011;55784;50.734;7.086;2022-09-16T10:35:37;5.57;;;0.60;;
68800;SDS011;55784;50.734;7.086;2022-09-16T10:38:38;4.05;;;0.60;;
68800;SDS011;55784;50.734;7.086;2022-09-16T10:41:24;4.07;;;0.60;;
68800;SDS011;55784;50.734;7.086;2022-09-16T10:43:58;3.28;;;0.47;;
68800;SDS011;55784;50.734;7.086;2022-09-16T10:46:26;4.78;;;0.60;;
68800;SDS011;55784;50.734;7.086;2022-09-16T10:48:53;4.75;;;0.55;;
68800;SDS011;55784;50.734;7.086;2022-09-16T10:51:27;3.50;;;0.70;;
68800;SDS011;55784;50.734;7.086;2022-09-16T10:53:55;5.07;;;0.60;;
68800;SDS011;55784;50.734;7.086;2022-09-16T10:56:22;4.88;;;0.50;;
68800;SDS011;55784;50.734;7.086;2022-09-16T10:59:11;5.57;;;0.80;;
68800;SDS011;55784;50.734;7.086;2022-09-16T11:04:30;4.00;;;0.65;;
68800;SDS011;55784;50.734;7.086;2022-09-16T11:10:03;4.20;;;0.60;;
68800;SDS011;55784;50.734;7.086;2022-09-16T11:12:40;7.82;;;0.73;;
68800;SDS011;55784;50.734;7.086;2022-09-16T11:28:46;2.33;;;0.30;;
68800;SDS011;55784;50.734;7.086;2022-09-16T11:45:55;4.68;;;0.50;;
68800;SDS011;55784;50.734;7.086;2022-09-16T11:48:32;6.28;;;0.40;;
68800;SDS011;55784;50.734;7.086;2022-09-16T11:51:15;3.47;;;0.57;;
68800;SDS011;55784;50.734;7.086;2022-09-16T11:54:08;3.53;;;0.47;;
68800;SDS011;55784;50.734;7.086;2022-09-16T11:56:45;2.58;;;0.50;;
68800;SDS011;55784;50.734;7.086;2022-09-16T11:59:27;2.35;;;0.30;;
68800;SDS011;55784;50.734;7.086;2022-09-16T12:02:00;3.05;;;0.50;;
68800;SDS011;55784;50.734;7.086;2022-09-16T12:04:37;3.90;;;0.60;;
68800;SDS011;55784;50.734;7.086;2022-09-16T12:09:54;3.10;;;0.30;;
68800;SDS011;55784;50.734;7.086;2022-09-16T12:12:28;4.65;;;0.47;;
68800;SDS011;55784;50.734;7.086;2022-09-16T12:15:12;4.53;;;0.40;;
68800;SDS011;55784;50.734;7.086;2022-09-16T12:17:46;3.50;;;0.50;;
68800;SDS011;55784;50.734;7.086;2022-09-16T12:20:18;3.35;;;0.50;;
68800;SDS011;55784;50.734;7.086;2022-09-16T12:22:57;2.88;;;0.40;;
68800;SDS011;55784;50.734;7.086;2022-09-16T12:25:40;4.82;;;0.57;;
68800;SDS011;55784;50.734;7.086;2022-09-16T12:28:15;5.97;;;0.70;;
68800;SDS011;55784;50.734;7.086;2022-09-16T12:30:48;8.50;;;1.00;;
68800;SDS011;55784;50.734;7.086;2022-09-16T12:33:26;4.70;;;0.68;;
68800;SDS011;55784;50.734;7.086;2022-09-16T12:36:01;7.20;;;1.15;;
68800;SDS011;55784;50.734;7.086;2022-09-16T12:38:30;4.68;;;0.80;;
68800;SDS011;55784;50.734;7.086;2022-09-16T12:41:00;4.40;;;0.55;;
68800;SDS011;55784;50.734;7.086;2022-09-16T12:46:51;5.53;;;0.90;;
68800;SDS011;55784;50.734;7.086;2022-09-16T12:58:14;3.50;;;0.60;;
68800;SDS011;55784;50.734;7.086;2022-09-16T13:06:54;6.13;;;1.10;;
68800;SDS011;55784;50.734;7.086;2022-09-16T13:09:27;3.88;;;1.10;;
68800;SDS011;55784;50.734;7.086;2022-09-16T13:11:57;3.73;;;0.90;;
68800;SDS011;55784;50.734;7.086;2022-09-16T13:14:27;5.75;;;0.80;;
68800;SDS011;55784;50.734;7.086;2022-09-16T13:16:55;1.75;;;0.52;;
68800;SDS011;55784;50.734;7.086;2022-09-16T13:22:10;3.05;;;0.68;;
68800;SDS011;55784;50.734;7.086;2022-09-16T13:24:41;3.33;;;0.60;;
68800;SDS011;55784;50.734;7.086;2022-09-16T13:27:22;2.72;;;0.50;;
68800;SDS011;55784;50.734;7.086;2022-09-16T13:30:12;4.35;;;0.50;;
68800;SDS011;55784;50.734;7.086;2022-09-16T13:37:43;2.80;;;0.40;;
68800;SDS011;55784;50.734;7.086;2022-09-16T13:40:31;4.85;;;0.77;;
68800;SDS011;55784;50.734;7.086;2022-09-16T13:45:35;5.07;;;0.70;;
68800;SDS011;55784;50.734;7.086;2022-09-16T13:48:15;3.58;;;0.60;;
68800;SDS011;55784;50.734;7.086;2022-09-16T13:50:42;3.87;;;0.67;;
68800;SDS011;55784;50.734;7.086;2022-09-16T13:53:17;3.17;;;0.40;;
68800;SDS011;55784;50.734;7.086;2022-09-16T13:56:22;3.10;;;0.30;;
68800;SDS011;55784;50.734;7.086;2022-09-16T14:01:19;1.65;;;0.30;;
68800;SDS011;55784;50.734;7.086;2022-09-16T14:14:48;2.67;;;0.50;;
68800;SDS011;55784;50.734;7.086;2022-09-16T14:17:25;2.40;;;0.30;;
68800;SDS011;55784;50.734;7.086;2022-09-16T14:19:58;3.95;;;0.50;;
68800;SDS011;55784;50.734;7.086;2022-09-16T14:22:24;4.30;;;0.75;;
68800;SDS011;55784;50.734;7.086;2022-09-16T14:24:51;3.38;;;0.50;;
68800;SDS011;55784;50.734;7.086;2022-09-16T14:27:31;2.72;;;0.40;;
68800;SDS011;55784;50.734;7.086;2022-09-16T14:30:01;5.77;;;1.30;;
68800;SDS011;55784;50.734;7.086;2022-09-16T14:32:47;3.50;;;0.50;;
68800;SDS011;55784;50.734;7.086;2022-09-16T14:35:20;3.10;;;0.43;;
68800;SDS011;55784;50.734;7.086;2022-09-16T14:37:49;3.83;;;0.50;;
68800;SDS011;55784;50.734;7.086;2022-09-16T14:40:18;3.77;;;0.60;;
68800;SDS011;55784;50.734;7.086;2022-09-16T14:42:51;5.68;;;1.17;;
68800;SDS011;55784;50.734;7.086;2022-09-16T14:45:19;2.17;;;0.30;;
68800;SDS011;55784;50.734;7.086;2022-09-16T14:47:45;1.95;;;0.30;;
68800;SDS011;55784;50.734;7.086;2022-09-16T14:50:14;3.08;;;0.60;;
68800;SDS011;55784;50.734;7.086;2022-09-16T14:52:51;3.50;;;0.40;;
68800;SDS011;55784;50.734;7.086;2022-09-16T14:55:26;1.90;;;0.30;;
68800;SDS011;55784;50.734;7.086;2022-09-16T14:57:53;4.78;;;0.70;;
68800;SDS011;55784;50.734;7.086;2022-09-16T15:00:19;2.57;;;0.50;;
68800;SDS011;55784;50.734;7.086;2022-09-16T15:02:48;2.63;;;0.43;;
68800;SDS011;55784;50.734;7.086;2022-09-16T15:07:56;2.10;;;0.47;;
68800;SDS011;55784;50.734;7.086;2022-09-16T15:10:38;5.63;;;1.33;;
68800;SDS011;55784;50.734;7.086;2022-09-16T15:13:08;1.60;;;0.30;;
68800;SDS011;55784;50.734;7.086;2022-09-16T15:15:38;4.32;;;0.70;;
68800;SDS011;55784;50.734;7.086;2022-09-16T15:18:26;4.70;;;0.80;;
68800;SDS011;55784;50.734;7.086;2022-09-16T15:21:05;4.82;;;0.70;;
68800;SDS011;55784;50.734;7.086;2022-09-16T15:23:36;4.20;;;0.50;;
68800;SDS011;55784;50.734;7.086;2022-09-16T15:28:47;3.80;;;0.90;;
68800;SDS011;55784;50.734;7.086;2022-09-16T15:31:24;5.30;;;1.05;;
68800;SDS011;55784;50.734;7.086;2022-09-16T15:33:56;5.25;;;1.10;;
68800;SDS011;55784;50.734;7.086;2022-09-16T15:36:44;2.43;;;0.43;;
68800;SDS011;55784;50.734;7.086;2022-09-16T15:39:20;4.95;;;0.90;;
68800;SDS011;55784;50.734;7.086;2022-09-16T15:42:13;3.58;;;0.57;;
68800;SDS011;55784;50.734;7.086;2022-09-16T15:44:51;5.18;;;1.20;;
68800;SDS011;55784;50.734;7.086;2022-09-16T15:47:26;6.25;;;1.45;;
68800;SDS011;55784;50.734;7.086;2022-09-16T15:50:04;5.93;;;1.37;;
68800;SDS011;55784;50.734;7.086;2022-09-16T15:52:38;7.53;;;1.88;;
68800;SDS011;55784;50.734;7.086;2022-09-16T15:58:21;5.22;;;1.17;;
68800;SDS011;55784;50.734;7.086;2022-09-16T16:14:32;3.88;;;0.60;;
68800;SDS011;55784;50.734;7.086;2022-09-16T16:19:34;5.85;;;0.90;;
68800;SDS011;55784;50.734;7.086;2022-09-16T16:22:01;5.93;;;1.08;;
68800;SDS011;55784;50.734;7.086;2022-09-16T16:24:27;5.75;;;1.00;;
68800;SDS011;55784;50.734;7.086;2022-09-16T16:26:54;3.10;;;0.50;;
68800;SDS011;55784;50.734;7.086;2022-09-16T16:29:20;3.57;;;0.70;;
68800;SDS011;55784;50.734;7.086;2022-09-16T16:31:58;9.07;;;2.40;;
68800;SDS011;55784;50.734;7.086;2022-09-16T16:34:26;4.35;;;0.80;;
68800;SDS011;55784;50.734;7.086;2022-09-16T16:36:51;4.67;;;0.83;;
68800;SDS011;55784;50.734;7.086;2022-09-16T16:39:17;5.25;;;0.95;;
68800;SDS011;55784;50.734;7.086;2022-09-16T16:41:42;5.43;;;0.80;;
68800;SDS011;55784;50.734;7.086;2022-09-16T16:44:07;4.43;;;0.80;;
68800;SDS011;55784;50.734;7.086;2022-09-16T16:46:33;4.10;;;0.60;;
68800;SDS011;55784;50.734;7.086;2022-09-16T16:48:59;3.92;;;0.80;;
68800;SDS011;55784;50.734;7.086;2022-09-16T16:51:25;4.07;;;0.90;;
68800;SDS011;55784;50.734;7.086;2022-09-16T16:53:50;5.10;;;0.90;;
68800;SDS011;55784;50.734;7.086;2022-09-16T16:56:17;3.13;;;0.50;;
68800;SDS011;55784;50.734;7.086;2022-09-16T16:58:43;5.88;;;1.00;;
68800;SDS011;55784;50.734;7.086;2022-09-16T17:01:15;3.78;;;0.50;;
68800;SDS011;55784;50.734;7.086;2022-09-16T17:03:46;3.78;;;0.50;;
68800;SDS011;55784;50.734;7.086;2022-09-16T17:06:15;4.20;;;0.90;;
68800;SDS011;55784;50.734;7.086;2022-09-16T17:08:41;5.30;;;0.82;;
68800;SDS011;55784;50.734;7.086;2022-09-16T17:11:10;5.90;;;1.00;;
68800;SDS011;55784;50.734;7.086;2022-09-16T17:13:39;4.97;;;0.90;;
68800;SDS011;55784;50.734;7.086;2022-09-16T17:16:06;4.25;;;0.70;;
68800;SDS011;55784;50.734;7.086;2022-09-16T17:18:34;5.10;;;0.70;;
68800;SDS011;55784;50.734;7.086;2022-09-16T17:21:01;2.88;;;0.40;;
68800;SDS011;55784;50.734;7.086;2022-09-16T17:23:28;3.33;;;0.60;;
68800;SDS011;55784;50.734;7.086;2022-09-16T17:25:53;4.83;;;0.90;;
68800;SDS011;55784;50.734;7.086;2022-09-16T17:28:19;2.80;;;0.60;;
68800;SDS011;55784;50.734;7.086;2022-09-16T17:30:44;3.57;;;0.40;;
68800;SDS011;55784;50.734;7.086;2022-09-16T17:33:09;4.33;;;0.80;;
68800;SDS011;55784;50.734;7.086;2022-09-16T17:35:35;5.60;;;0.60;;
68800;SDS011;55784;50.734;7.086;2022-09-16T17:38:00;4.23;;;0.73;;
68800;SDS011;55784;50.734;7.086;2022-09-16T17:40:28;4.47;;;0.82;;
68800;SDS011;55784;50.734;7.086;2022-09-16T17:42:53;3.83;;;0.70;;
68800;SDS011;55784;50.734;7.086;2022-09-16T17:45:18;6.00;;;1.10;;
68800;SDS011;55784;50.734;7.086;2022-09-16T17:47:44;4.37;;;0.80;;
68800;SDS011;55784;50.734;7.086;2022-09-16T17:50:09;6.53;;;1.27;;
68800;SDS011;55784;50.734;7.086;2022-09-16T17:52:34;4.37;;;0.83;;
68800;SDS011;55784;50.734;7.086;2022-09-16T17:55:00;3.33;;;0.53;;
68800;SDS011;55784;50.734;7.086;2022-09-16T17:57:25;5.83;;;1.30;;
68800;SDS011;55784;50.734;7.086;2022-09-16T17:59:51;2.08;;;0.43;;
68800;SDS011;55784;50.734;7.086;2022-09-16T18:02:17;3.93;;;0.60;;
68800;SDS011;55784;50.734;7.086;2022-09-16T18:04:42;6.10;;;1.52;;
68800;SDS011;55784;50.734;7.086;2022-09-16T18:07:08;5.23;;;0.90;;
68800;SDS011;55784;50.734;7.086;2022-09-16T18:09:34;3.72;;;0.70;;
68800;SDS011;55784;50.734;7.086;2022-09-16T18:12:00;4.77;;;0.90;;
68800;SDS011;55784;50.734;7.086;2022-09-16T18:14:25;4.03;;;0.80;;
68800;SDS011;55784;50.734;7.086;2022-09-16T18:16:53;4.20;;;0.63;;
68800;SDS011;55784;50.734;7.086;2022-09-16T18:19:22;3.92;;;0.60;;
68800;SDS011;55784;50.734;7.086;2022-09-16T18:21:47;7.00;;;1.20;;
68800;SDS011;55784;50.734;7.086;2022-09-16T18:24:12;2.75;;;0.50;;
68800;SDS011;55784;50.734;7.086;2022-09-16T18:26:38;4.85;;;0.50;;
68800;SDS011;55784;50.734;7.086;2022-09-16T18:29:05;4.50;;;0.57;;
68800;SDS011;55784;50.734;7.086;2022-09-16T18:31:31;4.20;;;0.68;;
68800;SDS011;55784;50.734;7.086;2022-09-16T18:33:57;5.28;;;1.17;;
68800;SDS011;55784;50.734;7.086;2022-09-16T18:36:24;3.03;;;0.70;;
68800;SDS011;55784;50.734;7.086;2022-09-16T18:38:53;5.00;;;0.70;;
68800;SDS011;55784;50.734;7.086;2022-09-16T18:41:27;3.08;;;0.60;;
68800;SDS011;55784;50.734;7.086;2022-09-16T18:43:56;4.10;;;0.68;;
68800;SDS011;55784;50.734;7.086;2022-09-16T18:46:25;4.87;;;0.80;;
68800;SDS011;55784;50.734;7.086;2022-09-16T18:48:55;3.28;;;0.65;;
68800;SDS011;55784;50.734;7.086;2022-09-16T18:51:22;5.75;;;1.70;;
68800;SDS011;55784;50.734;7.086;2022-09-16T18:53:54;6.72;;;0.80;;
68800;SDS011;55784;50.734;7.086;2022-09-16T18:56:22;4.40;;;1.00;;
68800;SDS011;55784;50.734;7.086;2022-09-16T18:58:49;5.97;;;0.73;;
68800;SDS011;55784;50.734;7.086;2022-09-16T19:03:46;5.85;;;1.05;;
68800;SDS011;55784;50.734;7.086;2022-09-16T19:06:12;3.93;;;0.60;;
68800;SDS011;55784;50.734;7.086;2022-09-16T19:08:37;3.55;;;0.63;;
68800;SDS011;55784;50.734;7.086;2022-09-16T19:11:03;5.30;;;0.80;;
68800;SDS011;55784;50.734;7.086;2022-09-16T19:13:30;3.25;;;0.60;;
68800;SDS011;55784;50.734;7.086;2022-09-16T19:15:57;4.88;;;0.60;;
68800;SDS011;55784;50.734;7.086;2022-09-16T19:18:23;5.15;;;0.70;;
68800;SDS011;55784;50.734;7.086;2022-09-16T19:20:50;4.93;;;0.80;;
68800;SDS011;55784;50.734;7.086;2022-09-16T19:23:15;5.00;;;1.00;;
68800;SDS011;55784;50.734;7.086;2022-09-16T19:25:41;3.03;;;0.60;;
68800;SDS011;55784;50.734;7.086;2022-09-16T19:28:06;3.53;;;0.70;;
68800;SDS011;55784;50.734;7.086;2022-09-16T19:30:32;5.15;;;1.00;;
68800;SDS011;55784;50.734;7.086;2022-09-16T19:32:57;3.13;;;0.60;;
68800;SDS011;55784;50.734;7.086;2022-09-16T19:35:23;4.43;;;0.90;;
68800;SDS011;55784;50.734;7.086;2022-09-16T19:37:48;4.57;;;0.80;;
68800;SDS011;55784;50.734;7.086;2022-09-16T19:40:15;6.47;;;1.00;;
68800;SDS011;55784;50.734;7.086;2022-09-16T19:42:40;3.95;;;0.90;;
68800;SDS011;55784;50.734;7.086;2022-09-16T19:45:06;4.53;;;0.80;;
68800;SDS011;55784;50.734;7.086;2022-09-16T19:47:31;4.50;;;0.85;;
68800;SDS011;55784;50.734;7.086;2022-09-16T19:49:57;5.90;;;1.00;;
68800;SDS011;55784;50.734;7.086;2022-09-16T19:52:22;5.13;;;1.20;;
68800;SDS011;55784;50.734;7.086;2022-09-16T19:54:47;4.70;;;0.80;;
68800;SDS011;55784;50.734;7.086;2022-09-16T19:57:13;5.73;;;0.93;;
68800;SDS011;55784;50.734;7.086;2022-09-16T19:59:38;4.33;;;0.90;;
68800;SDS011;55784;50.734;7.086;2022-09-16T20:02:04;5.88;;;0.90;;
68800;SDS011;55784;50.734;7.086;2022-09-16T20:04:30;5.03;;;0.98;;
68800;SDS011;55784;50.734;7.086;2022-09-16T20:06:55;5.53;;;1.00;;
68800;SDS011;55784;50.734;7.086;2022-09-16T20:09:21;5.78;;;1.20;;
68800;SDS011;55784;50.734;7.086;2022-09-16T20:11:47;4.82;;;1.05;;